Time;durP1;ratioP1;P1;durP2;ratioP2;P2;SDS_P1;SDS_P2;PMS_P1;PMS_P2;Temp;Humidity;BMP_temperature;BMP_pressure;BME280_temperature;BME280_humidity;BME280_pressure;Samples;Min_cycle;Max_cycle;Signal;HPM_P1;HPM_P2
2023/07/20 00:00:53;;;;;;;0.00;0.00;;;17.50;99.90;;;;;;5093608;28;20400;-75
2023/07/20 00:03:23;;;;;;;3.33;1.33;;;17.50;99.90;;;;;;5094710;28;20115;-74
2023/07/20 00:05:49;;;;;;;0.70;0.70;;;17.40;99.90;;;;;;5095266;28;20391;-75
2023/07/20 00:08:17;;;;;;;0.40;0.40;;;17.60;99.90;;;;;;5093754;28;20020;-75
2023/07/20 00:10:43;;;;;;;0.00;0.00;;;17.40;99.90;;;;;;5094830;28;20032;-74
2023/07/20 00:13:11;;;;;;;0.00;0.00;;;17.30;99.90;;;;;;5093706;28;20065;-75
2023/07/20 00:15:37;;;;;;;2.30;0.73;;;17.30;99.90;;;;;;5093716;28;20077;-75
2023/07/20 00:18:04;;;;;;;3.60;1.63;;;17.30;99.90;;;;;;5094673;28;20073;-75
2023/07/20 00:20:30;;;;;;;0.00;0.00;;;17.40;99.90;;;;;;5095028;28;20028;-76
2023/07/20 00:22:57;;;;;;;0.00;0.00;;;17.30;99.90;;;;;;5094561;28;20032;-75
2023/07/20 00:25:23;;;;;;;0.10;0.10;;;17.30;99.90;;;;;;5094874;28;20028;-75
2023/07/20 00:27:49;;;;;;;1.65;0.57;;;17.30;99.90;;;;;;5093474;28;20024;-75
2023/07/20 00:30:15;;;;;;;0.10;0.10;;;17.20;99.90;;;;;;5093646;28;20020;-74
2023/07/20 00:32:43;;;;;;;0.08;0.08;;;17.20;99.90;;;;;;5093022;28;20056;-73
2023/07/20 00:35:09;;;;;;;0.13;0.13;;;17.20;99.90;;;;;;5094692;28;20496;-74
2023/07/20 00:37:35;;;;;;;0.10;0.10;;;17.20;99.90;;;;;;5094641;28;20038;-74
2023/07/20 00:40:00;;;;;;;1.45;0.70;;;17.10;99.90;;;;;;5093005;28;20451;-74
2023/07/20 00:42:26;;;;;;;0.20;0.20;;;17.20;99.90;;;;;;5094203;28;20028;-73
2023/07/20 00:44:52;;;;;;;0.10;0.10;;;17.10;99.90;;;;;;5094415;28;20119;-73
2023/07/20 00:47:17;;;;;;;0.05;0.05;;;17.10;99.90;;;;;;5091545;28;20031;-73
2023/07/20 00:49:43;;;;;;;0.00;0.00;;;17.20;99.90;;;;;;5081395;28;20065;-73
2023/07/20 00:52:12;;;;;;;0.00;0.00;;;17.10;99.90;;;;;;5094028;28;20020;-74
2023/07/20 00:54:38;;;;;;;0.52;0.20;;;17.00;99.90;;;;;;5093009;28;20027;-74
2023/07/20 00:57:06;;;;;;;0.00;0.00;;;17.00;99.90;;;;;;5093913;28;20016;-74
2023/07/20 00:59:33;;;;;;;0.00;0.00;;;17.00;99.90;;;;;;5092896;28;20040;-74
2023/07/20 01:01:58;;;;;;;0.10;0.10;;;17.00;99.90;;;;;;5093487;28;20388;-74
2023/07/20 01:04:26;;;;;;;0.10;0.10;;;17.10;99.90;;;;;;5092462;28;20036;-73
2023/07/20 01:07:23;;;;;;;0.00;0.00;;;17.10;99.90;;;;;;5092598;28;20084;-74
2023/07/20 01:10:00;;;;;;;0.00;0.00;;;17.10;99.90;;;;;;5077372;28;20472;-74
2023/07/20 01:12:51;;;;;;;0.00;0.00;;;17.00;99.90;;;;;;5092383;28;20115;-74
2023/07/20 01:15:17;;;;;;;0.00;0.00;;;17.10;99.90;;;;;;5093647;28;20492;-74
2023/07/20 01:17:44;;;;;;;0.00;0.00;;;17.10;99.90;;;;;;5092712;28;20035;-74
2023/07/20 01:20:13;;;;;;;0.20;0.20;;;17.00;99.90;;;;;;5092400;28;20107;-73
2023/07/20 01:22:58;;;;;;;0.40;0.38;;;16.80;99.90;;;;;;5093532;28;20028;-74
2023/07/20 01:25:42;;;;;;;0.10;0.10;;;17.00;99.90;;;;;;5092389;28;20441;-74
2023/07/20 01:28:23;;;;;;;0.10;0.10;;;16.80;99.90;;;;;;5092039;28;20031;-74
2023/07/20 01:31:22;;;;;;;0.85;0.75;;;17.00;99.90;;;;;;5092902;28;20464;-73
2023/07/20 01:33:48;;;;;;;0.00;0.00;;;16.80;99.90;;;;;;5092088;28;20032;-73
2023/07/20 01:36:18;;;;;;;0.10;0.10;;;17.00;99.90;;;;;;5092364;28;20046;-74
2023/07/20 01:38:45;;;;;;;0.03;0.03;;;17.00;99.90;;;;;;5091932;28;20055;-73
2023/07/20 01:41:12;;;;;;;0.00;0.00;;;17.10;99.90;;;;;;5092297;28;20418;-74
2023/07/20 01:43:37;;;;;;;0.10;0.10;;;17.10;99.90;;;;;;5091642;28;20163;-74
2023/07/20 01:46:04;;;;;;;0.00;0.00;;;17.00;99.90;;;;;;5093312;28;20102;-73
2023/07/20 01:48:30;;;;;;;0.00;0.00;;;16.90;99.90;;;;;;5080535;28;20566;-75
2023/07/20 01:50:56;;;;;;;0.00;0.00;;;16.90;99.90;;;;;;5077180;28;20028;-74
2023/07/20 01:53:22;;;;;;;0.10;0.10;;;17.00;99.90;;;;;;5072614;28;20052;-74
2023/07/20 01:55:48;;;;;;;0.00;0.00;;;17.00;99.90;;;;;;5078598;28;20169;-74
2023/07/20 01:58:13;;;;;;;0.00;0.00;;;16.80;99.90;;;;;;5090202;28;20197;-74
2023/07/20 02:00:39;;;;;;;0.80;0.38;;;16.50;99.90;;;;;;5071699;28;20021;-74
2023/07/20 02:03:06;;;;;;;0.00;0.00;;;16.70;99.90;;;;;;5084628;28;20046;-74
2023/07/20 02:05:31;;;;;;;0.70;0.70;;;16.70;99.90;;;;;;5091510;28;20086;-73
2023/07/20 02:07:57;;;;;;;0.85;0.85;;;16.60;99.90;;;;;;5080563;28;20016;-73
2023/07/20 02:10:23;;;;;;;0.15;0.13;;;16.50;99.90;;;;;;5089932;28;20024;-73
2023/07/20 02:12:48;;;;;;;0.00;0.00;;;16.50;99.90;;;;;;5091353;28;20024;-74
2023/07/20 02:15:16;;;;;;;0.10;0.10;;;16.50;99.90;;;;;;5092641;28;20016;-73
2023/07/20 02:17:42;;;;;;;0.00;0.00;;;16.60;99.90;;;;;;5091359;28;20024;-73
2023/07/20 02:20:10;;;;;;;0.05;0.05;;;16.60;99.90;;;;;;5091541;28;20028;-74
2023/07/20 02:22:37;;;;;;;0.28;0.15;;;16.50;99.90;;;;;;5092616;28;20036;-74
2023/07/20 02:25:07;;;;;;;0.30;0.30;;;16.60;99.90;;;;;;5081242;28;20056;-74
2023/07/20 02:27:36;;;;;;;0.68;0.68;;;16.50;99.90;;;;;;5089032;28;20024;-74
2023/07/20 02:30:03;;;;;;;0.10;0.10;;;16.60;99.90;;;;;;5092664;28;20024;-73
2023/07/20 02:32:30;;;;;;;0.15;0.15;;;16.80;99.90;;;;;;5092650;28;20024;-74
2023/07/20 02:34:56;;;;;;;0.00;0.00;;;17.00;99.90;;;;;;5091337;28;20024;-74
2023/07/20 02:37:22;;;;;;;0.10;0.10;;;16.90;99.90;;;;;;5091282;28;20021;-74
2023/07/20 02:39:48;;;;;;;0.85;0.85;;;16.70;99.90;;;;;;5091460;28;20388;-74
2023/07/20 02:42:14;;;;;;;0.00;0.00;;;16.50;99.90;;;;;;5091005;28;20031;-73
2023/07/20 02:44:41;;;;;;;2.83;1.75;;;16.50;99.90;;;;;;5091159;28;20035;-74
2023/07/20 02:47:06;;;;;;;0.00;0.00;;;16.50;99.90;;;;;;5091499;28;20021;-74
2023/07/20 02:49:34;;;;;;;1.80;1.70;;;16.50;99.90;;;;;;5091188;28;20532;-74
2023/07/20 02:52:00;;;;;;;0.05;0.05;;;16.50;99.90;;;;;;5092695;28;20019;-75
2023/07/20 02:54:25;;;;;;;0.10;0.10;;;16.60;99.90;;;;;;5074332;28;20384;-75
2023/07/20 02:56:51;;;;;;;0.10;0.10;;;16.80;99.90;;;;;;5092442;28;20023;-77
2023/07/20 02:59:17;;;;;;;0.00;0.00;;;16.50;99.90;;;;;;5078928;28;20025;-74
2023/07/20 03:01:43;;;;;;;0.00;0.00;;;16.30;99.90;;;;;;5089197;28;20103;-77
2023/07/20 03:04:11;;;;;;;0.20;0.20;;;16.30;99.90;;;;;;5091046;28;20135;-77
2023/07/20 03:06:37;;;;;;;1.55;1.20;;;16.30;99.90;;;;;;5092395;28;20038;-74
2023/07/20 03:09:03;;;;;;;0.20;0.20;;;16.40;99.90;;;;;;5091348;28;20025;-75
2023/07/20 03:11:32;;;;;;;0.00;0.00;;;16.40;99.90;;;;;;5091829;28;20024;-75
2023/07/20 03:13:58;;;;;;;0.00;0.00;;;16.40;99.90;;;;;;5092519;28;20023;-75
2023/07/20 03:16:24;;;;;;;0.10;0.10;;;16.50;99.90;;;;;;5091047;28;20020;-74
2023/07/20 03:18:51;;;;;;;0.10;0.10;;;16.70;99.90;;;;;;5090987;28;20016;-75
2023/07/20 03:21:17;;;;;;;0.10;0.10;;;16.90;99.90;;;;;;5090726;28;20055;-74
2023/07/20 03:23:43;;;;;;;0.10;0.10;;;16.80;99.90;;;;;;5090912;28;20013;-74
2023/07/20 03:26:10;;;;;;;0.30;0.30;;;16.60;99.90;;;;;;5090651;28;20036;-74
2023/07/20 03:28:36;;;;;;;0.10;0.10;;;16.50;99.90;;;;;;5090888;28;20028;-74
2023/07/20 03:31:02;;;;;;;0.22;0.22;;;16.50;99.90;;;;;;5095477;28;20035;-75
2023/07/20 03:33:32;;;;;;;0.00;0.00;;;16.70;99.90;;;;;;5094737;28;20089;-73
2023/07/20 03:35:58;;;;;;;0.00;0.00;;;17.00;99.90;;;;;;5094660;28;20020;-74
2023/07/20 03:38:25;;;;;;;0.10;0.10;;;17.20;99.90;;;;;;5094768;28;20123;-73
2023/07/20 03:40:59;;;;;;;0.00;0.00;;;17.10;99.90;;;;;;5093866;28;20137;-73
2023/07/20 03:43:27;;;;;;;0.00;0.00;;;16.90;99.90;;;;;;5094291;28;20093;-73
2023/07/20 03:45:53;;;;;;;0.68;0.68;;;16.80;99.90;;;;;;5095504;28;20016;-73
2023/07/20 03:48:22;;;;;;;0.00;0.00;;;16.80;99.90;;;;;;5094194;28;20024;-74
2023/07/20 03:50:50;;;;;;;0.10;0.10;;;16.80;99.90;;;;;;5093598;28;20472;-73
2023/07/20 03:53:16;;;;;;;0.10;0.10;;;16.80;99.90;;;;;;5093743;28;20028;-73
2023/07/20 03:55:51;;;;;;;0.08;0.08;;;16.50;99.90;;;;;;5092920;28;20042;-73
2023/07/20 03:58:18;;;;;;;0.10;0.10;;;16.50;99.90;;;;;;5090748;28;20452;-73
2023/07/20 04:00:46;;;;;;;0.52;0.38;;;16.50;99.90;;;;;;5079586;28;20021;-74
2023/07/20 04:03:12;;;;;;;0.15;0.15;;;16.50;99.90;;;;;;5084779;28;20036;-73
2023/07/20 04:05:38;;;;;;;0.00;0.00;;;16.40;99.90;;;;;;5094971;28;20028;-73
2023/07/20 04:08:04;;;;;;;1.20;1.13;;;16.60;99.90;;;;;;5093650;28;20035;-73
2023/07/20 04:10:29;;;;;;;0.00;0.00;;;16.70;99.90;;;;;;5093621;28;20111;-74
2023/07/20 04:12:55;;;;;;;0.17;0.17;;;16.80;99.90;;;;;;5094869;28;20127;-73
2023/07/20 04:15:21;;;;;;;0.00;0.00;;;16.90;99.90;;;;;;5093631;28;20028;-73
2023/07/20 04:17:46;;;;;;;0.10;0.10;;;16.80;99.90;;;;;;5093722;28;20512;-73
2023/07/20 04:20:12;;;;;;;0.00;0.00;;;16.80;99.90;;;;;;5094799;28;20043;-73
2023/07/20 04:22:38;;;;;;;0.05;0.05;;;16.70;99.90;;;;;;5093408;28;20073;-74
2023/07/20 04:25:07;;;;;;;0.00;0.00;;;16.70;99.90;;;;;;5076599;28;20032;-73
2023/07/20 04:27:33;;;;;;;0.10;0.10;;;16.80;99.90;;;;;;5093348;28;20024;-74
2023/07/20 04:29:59;;;;;;;0.00;0.00;;;16.80;99.90;;;;;;5093593;28;20035;-73
2023/07/20 04:32:26;;;;;;;0.00;0.00;;;16.90;99.90;;;;;;5076087;28;20106;-73
2023/07/20 04:34:52;;;;;;;0.00;0.00;;;17.30;99.90;;;;;;5076756;28;20119;-74
2023/07/20 04:37:19;;;;;;;0.30;0.30;;;17.30;99.90;;;;;;5093210;28;20392;-74
2023/07/20 04:39:47;;;;;;;0.00;0.00;;;17.30;99.90;;;;;;5092623;28;20048;-74
2023/07/20 04:42:12;;;;;;;0.00;0.00;;;17.20;99.90;;;;;;5075998;28;20430;-73
2023/07/20 04:44:38;;;;;;;0.00;0.00;;;17.10;99.90;;;;;;5092996;28;20549;-74
2023/07/20 04:47:05;;;;;;;0.00;0.00;;;17.20;99.90;;;;;;5093139;28;20031;-73
2023/07/20 04:49:35;;;;;;;0.10;0.10;;;17.10;99.90;;;;;;5076795;28;20178;-73
2023/07/20 04:52:02;;;;;;;0.05;0.05;;;17.20;99.90;;;;;;5094133;28;20027;-73
2023/07/20 04:54:28;;;;;;;0.30;0.30;;;17.10;99.90;;;;;;5092848;28;20024;-73
2023/07/20 04:56:54;;;;;;;0.10;0.10;;;17.00;99.90;;;;;;5092720;28;20495;-73
2023/07/20 04:59:21;;;;;;;0.17;0.17;;;16.90;99.90;;;;;;5079965;28;20036;-73
2023/07/20 05:01:46;;;;;;;0.00;0.00;;;17.00;99.90;;;;;;5092391;28;20069;-74
2023/07/20 05:04:13;;;;;;;0.10;0.10;;;17.00;99.90;;;;;;5092599;28;20032;-73
2023/07/20 05:06:39;;;;;;;0.80;0.52;;;16.90;99.90;;;;;;5092373;28;20024;-73
2023/07/20 05:09:06;;;;;;;0.63;0.22;;;16.90;99.90;;;;;;5076056;28;20029;-74
2023/07/20 05:11:32;;;;;;;1.85;0.75;;;16.80;99.90;;;;;;5093914;28;20033;-74
2023/07/20 05:13:59;;;;;;;0.38;0.38;;;16.80;99.90;;;;;;5092587;28;20170;-74
2023/07/20 05:16:25;;;;;;;0.10;0.10;;;16.80;99.90;;;;;;5093870;28;20161;-74
2023/07/20 05:18:51;;;;;;;0.00;0.00;;;16.80;99.90;;;;;;5092270;28;20391;-74
2023/07/20 05:21:17;;;;;;;0.00;0.00;;;16.90;99.90;;;;;;5092219;28;20024;-74
2023/07/20 05:23:44;;;;;;;0.00;0.00;;;17.20;99.90;;;;;;5091987;28;20020;-74
2023/07/20 05:26:13;;;;;;;0.03;0.03;;;17.60;99.90;;;;;;5092525;28;20035;-74
2023/07/20 05:28:38;;;;;;;0.00;0.00;;;17.70;99.90;;;;;;5093483;28;20388;-74
2023/07/20 05:31:05;;;;;;;0.00;0.00;;;17.80;99.90;;;;;;5093726;28;20023;-75
2023/07/20 05:33:30;;;;;;;0.00;0.00;;;17.80;99.90;;;;;;5092379;28;20043;-74
2023/07/20 05:35:56;;;;;;;0.10;0.10;;;18.00;99.90;;;;;;5093056;28;20024;-75
2023/07/20 05:38:22;;;;;;;0.10;0.10;;;17.70;99.90;;;;;;5092093;28;20099;-75
2023/07/20 05:40:47;;;;;;;0.00;0.00;;;17.90;99.90;;;;;;5093189;28;20472;-74
2023/07/20 05:43:14;;;;;;;0.10;0.10;;;18.10;99.90;;;;;;5075088;28;20059;-74
2023/07/20 05:45:43;;;;;;;0.00;0.00;;;18.10;99.90;;;;;;5093075;28;20567;-74
2023/07/20 05:48:13;;;;;;;0.00;0.00;;;17.90;99.90;;;;;;5091770;28;20047;-75
2023/07/20 05:50:43;;;;;;;0.00;0.00;;;17.70;99.90;;;;;;5092984;28;20130;-75
2023/07/20 05:53:09;;;;;;;0.08;0.08;;;18.00;99.90;;;;;;5090912;28;20031;-74
2023/07/20 05:55:34;;;;;;;0.00;0.00;;;18.00;99.90;;;;;;5092032;28;20016;-74
2023/07/20 05:58:00;;;;;;;0.00;0.00;;;18.20;99.90;;;;;;5090083;28;20032;-75
2023/07/20 06:00:26;;;;;;;0.00;0.00;;;18.40;99.90;;;;;;5080578;28;20020;-74
2023/07/20 06:02:54;;;;;;;0.00;0.00;;;18.20;99.90;;;;;;5093102;28;20107;-74
2023/07/20 06:05:20;;;;;;;0.00;0.00;;;18.50;99.90;;;;;;5092439;28;20560;-75
2023/07/20 06:07:46;;;;;;;0.00;0.00;;;18.80;99.90;;;;;;5093434;28;20036;-74
2023/07/20 06:10:12;;;;;;;0.00;0.00;;;18.90;99.90;;;;;;5092669;28;20020;-74
2023/07/20 06:12:38;;;;;;;0.65;0.63;;;18.80;99.90;;;;;;5093005;28;20035;-74
2023/07/20 06:15:05;;;;;;;0.00;0.00;;;18.90;99.90;;;;;;5092880;28;20043;-74
2023/07/20 06:17:31;;;;;;;0.13;0.13;;;18.90;99.90;;;;;;5092111;28;20073;-74
2023/07/20 06:19:57;;;;;;;0.10;0.10;;;18.80;99.90;;;;;;5092329;28;20095;-73
2023/07/20 06:22:23;;;;;;;0.00;0.00;;;18.50;99.90;;;;;;5092857;28;20115;-74
2023/07/20 06:24:48;;;;;;;0.00;0.00;;;18.40;99.90;;;;;;5092760;28;20036;-74
2023/07/20 06:27:15;;;;;;;0.00;0.00;;;18.30;99.90;;;;;;5092764;28;20099;-74
2023/07/20 06:29:41;;;;;;;0.10;0.10;;;18.40;99.90;;;;;;5092683;28;20043;-73
2023/07/20 06:32:08;;;;;;;0.05;0.05;;;18.40;99.90;;;;;;5092802;28;20036;-74
2023/07/20 06:34:36;;;;;;;0.00;0.00;;;18.50;99.90;;;;;;5091084;28;20085;-74
2023/07/20 06:37:04;;;;;;;0.00;0.00;;;18.40;99.90;;;;;;5092634;28;20073;-74
2023/07/20 06:39:30;;;;;;;0.00;0.00;;;18.70;99.90;;;;;;5092524;28;20032;-73
2023/07/20 06:41:56;;;;;;;0.00;0.00;;;18.50;99.90;;;;;;5092829;28;20066;-73
2023/07/20 06:44:22;;;;;;;0.00;0.00;;;18.60;99.90;;;;;;5092202;28;20040;-74
2023/07/20 06:46:47;;;;;;;0.00;0.00;;;18.70;99.90;;;;;;5092525;28;20024;-73
2023/07/20 06:49:25;;;;;;;0.00;0.00;;;19.30;99.90;;;;;;5079622;28;20152;-74
2023/07/20 06:51:50;;;;;;;0.10;0.10;;;19.60;99.90;;;;;;5069715;28;20021;-74
2023/07/20 06:54:16;;;;;;;0.03;0.03;;;19.30;99.90;;;;;;5071050;28;20467;-74
2023/07/20 06:56:42;;;;;;;0.00;0.00;;;19.60;99.90;;;;;;5070887;28;20055;-74
2023/07/20 06:59:07;;;;;;;0.00;0.00;;;19.80;99.90;;;;;;5078824;28;20111;-74
2023/07/20 07:01:33;;;;;;;0.00;0.00;;;19.80;99.90;;;;;;5087898;28;20372;-74
2023/07/20 07:03:59;;;;;;;0.00;0.00;;;20.00;99.90;;;;;;5090147;28;20036;-74
2023/07/20 07:06:24;;;;;;;0.00;0.00;;;20.00;99.90;;;;;;5092118;28;20032;-74
2023/07/20 07:08:50;;;;;;;0.00;0.00;;;20.10;99.90;;;;;;5090800;28;20055;-74
2023/07/20 07:11:16;;;;;;;0.00;0.00;;;19.80;99.90;;;;;;5092086;28;20031;-73
2023/07/20 07:13:41;;;;;;;0.00;0.00;;;19.60;99.90;;;;;;5092174;28;20388;-74
2023/07/20 07:16:07;;;;;;;0.00;0.00;;;19.50;99.90;;;;;;5092214;28;20028;-74
2023/07/20 07:18:33;;;;;;;0.10;0.10;;;19.50;99.90;;;;;;5091228;28;20032;-74
2023/07/20 07:20:58;;;;;;;0.00;0.00;;;19.50;99.90;;;;;;5091908;28;20077;-74
2023/07/20 07:23:24;;;;;;;0.10;0.10;;;19.50;99.90;;;;;;5091618;28;20020;-74
2023/07/20 07:25:50;;;;;;;0.15;0.15;;;19.40;99.90;;;;;;5091876;28;20071;-71
2023/07/20 07:28:16;;;;;;;0.00;0.00;;;19.70;99.90;;;;;;5091641;28;20024;-74
2023/07/20 07:30:41;;;;;;;0.00;0.00;;;20.00;99.90;;;;;;5091526;28;20020;-74
2023/07/20 07:33:08;;;;;;;0.00;0.00;;;20.00;99.90;;;;;;5091452;28;20031;-74
2023/07/20 07:35:34;;;;;;;0.00;0.00;;;20.40;99.90;;;;;;5091474;28;20036;-75
2023/07/20 07:37:59;;;;;;;0.10;0.10;;;20.80;99.90;;;;;;5091856;28;20510;-74
2023/07/20 07:40:25;;;;;;;0.00;0.00;;;20.50;99.90;;;;;;5089901;28;20043;-75
2023/07/20 07:42:51;;;;;;;0.00;0.00;;;19.70;99.90;;;;;;5091365;28;20020;-75
2023/07/20 07:45:16;;;;;;;0.00;0.00;;;20.20;99.90;;;;;;5091267;28;20460;-75
2023/07/20 07:47:42;;;;;;;0.00;0.00;;;20.70;99.90;;;;;;5090730;28;20020;-75
2023/07/20 07:50:09;;;;;;;0.00;0.00;;;20.70;99.90;;;;;;5091517;28;20096;-75
2023/07/20 07:52:34;;;;;;;0.00;0.00;;;20.80;99.90;;;;;;5091024;28;20016;-76
2023/07/20 07:55:00;;;;;;;0.00;0.00;;;20.70;99.90;;;;;;5090289;28;20082;-74
2023/07/20 07:57:26;;;;;;;0.00;0.00;;;20.60;99.90;;;;;;5090812;28;20082;-76
2023/07/20 07:59:52;;;;;;;0.00;0.00;;;20.70;99.90;;;;;;5085047;28;20488;-74
2023/07/20 08:02:17;;;;;;;0.10;0.10;;;20.80;99.90;;;;;;5090763;28;20472;-74
2023/07/20 08:04:43;;;;;;;0.00;0.00;;;21.10;99.90;;;;;;5090916;28;20127;-74
2023/07/20 08:07:09;;;;;;;0.00;0.00;;;21.30;99.90;;;;;;5069476;28;20032;-75
2023/07/20 08:09:35;;;;;;;0.00;0.00;;;21.40;99.90;;;;;;5083588;28;20098;-74
2023/07/20 08:12:00;;;;;;;0.00;0.00;;;21.30;99.90;;;;;;5090926;28;20054;-74
2023/07/20 08:14:27;;;;;;;0.00;0.00;;;21.40;99.90;;;;;;5090500;28;20111;-73
2023/07/20 08:16:53;;;;;;;0.15;0.15;;;21.60;99.90;;;;;;5089811;28;20020;-74
2023/07/20 08:19:19;;;;;;;0.00;0.00;;;21.30;99.90;;;;;;5090316;28;20035;-74
2023/07/20 08:21:45;;;;;;;0.00;0.00;;;21.40;99.90;;;;;;5089293;28;20039;-75
2023/07/20 08:24:11;;;;;;;0.10;0.10;;;21.60;99.90;;;;;;5090685;28;20024;-74
2023/07/20 08:26:36;;;;;;;0.73;0.73;;;21.50;99.90;;;;;;5090461;28;20031;-75
2023/07/20 08:29:02;;;;;;;0.00;0.00;;;21.70;99.90;;;;;;5090415;28;20065;-74
2023/07/20 08:31:28;;;;;;;0.40;0.40;;;21.70;99.90;;;;;;5089982;28;20055;-74
2023/07/20 08:33:54;;;;;;;0.00;0.00;;;21.30;99.90;;;;;;5081278;28;20028;-74
2023/07/20 08:36:19;;;;;;;0.00;0.00;;;21.50;99.90;;;;;;5089231;28;20036;-74
2023/07/20 08:38:45;;;;;;;0.00;0.00;;;22.10;99.90;;;;;;5089966;28;20036;-75
2023/07/20 08:41:11;;;;;;;0.10;0.10;;;22.40;99.90;;;;;;5090437;28;20031;-76
2023/07/20 08:43:41;;;;;;;0.00;0.00;;;22.60;99.90;;;;;;5088739;28;20124;-75
2023/07/20 08:46:08;;;;;;;0.00;0.00;;;22.70;99.90;;;;;;5089899;28;20044;-75
2023/07/20 08:48:34;;;;;;;0.00;0.00;;;22.60;99.90;;;;;;5089789;28;20039;-74
2023/07/20 08:51:01;;;;;;;0.15;0.15;;;22.80;99.90;;;;;;5088762;28;20020;-75
2023/07/20 08:53:28;;;;;;;0.00;0.00;;;22.40;99.90;;;;;;5089748;28;20038;-74
2023/07/20 08:55:55;;;;;;;0.00;0.00;;;22.40;99.90;;;;;;5088571;28;20040;-74
2023/07/20 08:58:20;;;;;;;0.10;0.10;;;22.20;99.90;;;;;;5085469;28;20025;-75
2023/07/20 09:00:51;;;;;;;0.10;0.10;;;22.70;99.90;;;;;;5078815;28;20020;-76
2023/07/20 09:03:17;;;;;;;0.10;0.10;;;22.20;99.90;;;;;;5086333;28;20042;-79
2023/07/20 09:05:44;;;;;;;0.20;0.20;;;21.70;99.90;;;;;;5089987;28;20035;-79
2023/07/20 09:08:09;;;;;;;0.00;0.00;;;22.10;99.90;;;;;;5089736;28;20078;-82
2023/07/20 09:10:35;;;;;;;0.10;0.10;;;21.90;99.90;;;;;;5089309;28;20457;-82
2023/07/20 09:13:02;;;;;;;0.10;0.10;;;21.50;99.90;;;;;;5089670;28;20063;-83
2023/07/20 09:15:29;;;;;;;0.10;0.10;;;21.50;99.90;;;;;;5088825;28;20048;-76
2023/07/20 09:17:55;;;;;;;0.00;0.00;;;21.50;99.90;;;;;;5087813;28;20097;-76
2023/07/20 09:20:21;;;;;;;0.00;0.00;;;21.70;99.90;;;;;;5089179;28;20020;-77
2023/07/20 09:22:47;;;;;;;0.00;0.00;;;21.00;99.90;;;;;;5089379;28;20035;-77
2023/07/20 09:25:19;;;;;;;0.00;0.00;;;21.20;99.90;;;;;;5089263;28;20047;-75
2023/07/20 09:27:48;;;;;;;0.10;0.10;;;21.20;99.90;;;;;;5091310;28;20039;-75
2023/07/20 09:30:15;;;;;;;0.00;0.00;;;21.70;99.90;;;;;;5092333;28;20024;-76
2023/07/20 09:32:43;;;;;;;0.00;0.00;;;22.00;99.90;;;;;;5091913;28;20074;-76
2023/07/20 09:35:16;;;;;;;0.30;0.30;;;21.80;99.90;;;;;;5093645;28;20040;-75
2023/07/20 09:37:57;;;;;;;0.00;0.00;;;21.50;99.90;;;;;;5077889;28;20028;-76
2023/07/20 09:40:24;;;;;;;0.00;0.00;;;21.60;99.90;;;;;;5093370;28;20032;-75
2023/07/20 09:42:52;;;;;;;0.35;0.35;;;21.50;99.90;;;;;;5091767;28;20026;-76
2023/07/20 09:45:19;;;;;;;0.03;0.03;;;21.70;99.70;;;;;;5093251;28;20042;-75
2023/07/20 09:47:45;;;;;;;0.00;0.00;;;22.40;98.30;;;;;;5093174;28;20028;-76
2023/07/20 09:50:10;;;;;;;0.20;0.17;;;22.40;99.10;;;;;;5092033;28;20028;-76
2023/07/20 09:52:41;;;;;;;0.00;0.00;;;22.90;98.20;;;;;;5093188;28;20073;-75
2023/07/20 09:55:11;;;;;;;0.00;0.00;;;23.00;97.80;;;;;;5091803;28;20540;-76
2023/07/20 09:57:38;;;;;;;0.00;0.00;;;23.40;96.90;;;;;;5092613;28;20380;-76
2023/07/20 10:00:12;;;;;;;0.35;0.25;;;22.60;97.10;;;;;;5078687;28;20058;-77
2023/07/20 10:02:45;;;;;;;0.10;0.10;;;22.40;97.60;;;;;;5091628;28;20472;-75
2023/07/20 10:05:15;;;;;;;0.00;0.00;;;22.50;98.60;;;;;;5092406;28;20050;-75
2023/07/20 10:07:49;;;;;;;0.70;0.47;;;23.20;97.40;;;;;;5093025;28;20455;-76
2023/07/20 10:10:17;;;;;;;0.00;0.00;;;23.80;95.80;;;;;;5092694;28;20111;-75
2023/07/20 10:12:46;;;;;;;0.22;0.22;;;23.80;95.60;;;;;;5092936;28;20032;-76
2023/07/20 10:15:26;;;;;;;0.05;0.05;;;23.40;97.10;;;;;;5092736;28;20016;-76
2023/07/20 10:18:12;;;;;;;0.00;0.00;;;23.20;96.90;;;;;;5092873;28;20032;-76
2023/07/20 10:20:41;;;;;;;0.35;0.35;;;23.20;97.00;;;;;;5092486;28;20028;-76
2023/07/20 10:23:07;;;;;;;0.10;0.10;;;23.40;96.80;;;;;;5091717;28;20388;-76
2023/07/20 10:25:37;;;;;;;0.00;0.00;;;23.60;96.80;;;;;;5092434;28;20060;-76
2023/07/20 10:28:06;;;;;;;0.38;0.38;;;23.70;96.50;;;;;;5094318;28;20036;-75
2023/07/20 10:30:36;;;;;;;0.00;0.00;;;23.30;96.20;;;;;;5092859;28;20048;-75
2023/07/20 10:33:05;;;;;;;0.52;0.52;;;23.30;96.30;;;;;;5093278;28;20388;-76
2023/07/20 10:35:50;;;;;;;0.00;0.00;;;22.90;96.00;;;;;;5092486;28;20040;-75
2023/07/20 10:38:16;;;;;;;0.20;0.20;;;22.90;96.60;;;;;;5093610;28;20047;-76
2023/07/20 10:40:41;;;;;;;0.10;0.10;;;23.30;96.00;;;;;;5096182;28;20012;-76
2023/07/20 10:43:10;;;;;;;0.00;0.00;;;23.60;96.70;;;;;;5096698;28;20051;-76
2023/07/20 10:45:39;;;;;;;0.03;0.03;;;24.60;95.00;;;;;;5096195;28;20097;-76
2023/07/20 10:48:25;;;;;;;1.85;0.15;;;24.70;94.00;;;;;;5095591;28;20013;-76
2023/07/20 10:51:10;;;;;;;0.10;0.10;;;24.50;93.60;;;;;;5095964;28;20126;-76
2023/07/20 10:53:36;;;;;;;0.10;0.10;;;23.80;93.70;;;;;;5096590;28;20064;-76
2023/07/20 10:56:20;;;;;;;0.00;0.00;;;23.80;94.00;;;;;;5096064;28;20054;-76
2023/07/20 10:58:46;;;;;;;0.20;0.20;;;23.70;94.40;;;;;;5070291;28;20044;-76
2023/07/20 11:01:17;;;;;;;0.20;0.20;;;23.80;93.80;;;;;;5089800;28;20028;-76
2023/07/20 11:03:49;;;;;;;0.30;0.20;;;23.40;94.80;;;;;;5082368;28;20119;-76
2023/07/20 11:06:24;;;;;;;0.10;0.10;;;23.40;94.50;;;;;;5096277;28;20488;-76
2023/07/20 11:08:56;;;;;;;0.45;0.22;;;23.70;95.00;;;;;;5075246;28;20047;-75
2023/07/20 11:11:27;;;;;;;0.00;0.00;;;23.70;95.20;;;;;;5075371;28;20039;-76
2023/07/20 11:14:00;;;;;;;0.00;0.00;;;23.80;95.20;;;;;;5072625;28;20469;-76
2023/07/20 11:16:43;;;;;;;0.00;0.00;;;24.40;94.60;;;;;;5076121;28;20831;-76
2023/07/20 11:19:25;;;;;;;0.00;0.00;;;25.10;93.80;;;;;;5072608;28;20032;-76
2023/07/20 11:21:56;;;;;;;0.00;0.00;;;25.90;93.10;;;;;;5081374;28;20039;-76
2023/07/20 11:24:22;;;;;;;0.05;0.05;;;25.30;93.20;;;;;;5080052;28;20048;-77
2023/07/20 11:26:52;;;;;;;0.10;0.10;;;25.00;93.40;;;;;;5075624;28;20687;-77
2023/07/20 11:29:20;;;;;;;0.00;0.00;;;24.00;94.20;;;;;;5071864;28;20480;-76
2023/07/20 11:31:47;;;;;;;0.00;0.00;;;24.20;94.10;;;;;;5071460;28;20492;-76
2023/07/20 11:34:18;;;;;;;0.20;0.20;;;24.70;94.30;;;;;;5081730;28;20060;-75
2023/07/20 11:36:46;;;;;;;0.00;0.00;;;24.20;94.50;;;;;;5080799;28;20052;-73
2023/07/20 11:39:13;;;;;;;0.00;0.00;;;24.40;93.80;;;;;;5071389;28;20111;-76
2023/07/20 11:41:50;;;;;;;0.10;0.10;;;24.90;93.50;;;;;;5075999;28;20051;-76
2023/07/20 11:44:17;;;;;;;0.10;0.10;;;25.40;92.50;;;;;;5083588;28;20025;-76
2023/07/20 11:46:47;;;;;;;0.15;0.15;;;25.20;92.20;;;;;;5083340;28;20019;-76
2023/07/20 11:49:13;;;;;;;0.93;0.68;;;24.60;92.70;;;;;;5074191;28;20044;-75
2023/07/20 11:51:40;;;;;;;0.00;0.00;;;23.80;93.30;;;;;;5070109;28;20469;-74
2023/07/20 11:54:08;;;;;;;0.00;0.00;;;24.00;93.90;;;;;;5071943;28;20043;-76
2023/07/20 11:56:33;;;;;;;0.00;0.00;;;24.40;92.90;;;;;;5084912;28;20105;-76
2023/07/20 11:59:01;;;;;;;0.10;0.10;;;24.70;92.90;;;;;;5082311;28;20063;-75
2023/07/20 12:01:32;;;;;;;0.05;0.05;;;25.10;91.50;;;;;;5090799;28;20472;-75
2023/07/20 12:04:01;;;;;;;0.10;0.10;;;24.80;92.00;;;;;;5089815;28;20058;-71
2023/07/20 12:06:28;;;;;;;0.10;0.10;;;24.40;92.30;;;;;;5091122;28;20071;-71
2023/07/20 12:08:57;;;;;;;0.05;0.05;;;24.60;91.60;;;;;;5090970;28;20476;-71
2023/07/20 12:11:39;;;;;;;0.10;0.10;;;24.00;92.70;;;;;;5090235;28;20028;-76
2023/07/20 12:14:07;;;;;;;0.05;0.05;;;24.10;92.50;;;;;;5087492;28;20028;-76
2023/07/20 12:16:34;;;;;;;0.17;0.17;;;24.40;93.00;;;;;;5085022;28;20008;-76
2023/07/20 12:19:01;;;;;;;0.00;0.00;;;24.40;91.70;;;;;;5090947;28;20154;-74
2023/07/20 12:21:28;;;;;;;0.13;0.13;;;23.70;92.50;;;;;;5086416;28;20035;-73
2023/07/20 12:23:57;;;;;;;0.28;0.28;;;24.10;92.20;;;;;;5088974;28;20020;-76
2023/07/20 12:26:23;;;;;;;0.08;0.08;;;24.10;91.80;;;;;;5090812;28;20480;-77
2023/07/20 12:28:49;;;;;;;0.00;0.00;;;23.50;92.80;;;;;;5089301;28;20024;-77
2023/07/20 12:31:15;;;;;;;0.00;0.00;;;24.00;92.20;;;;;;5089943;28;20077;-77
2023/07/20 12:33:41;;;;;;;0.20;0.20;;;24.20;92.40;;;;;;5088612;28;20028;-75
2023/07/20 12:36:08;;;;;;;0.05;0.05;;;24.20;92.40;;;;;;5089803;28;20482;-76
2023/07/20 12:38:34;;;;;;;0.00;0.00;;;23.80;93.20;;;;;;5089547;28;20020;-76
2023/07/20 12:41:03;;;;;;;0.93;0.57;;;23.90;93.10;;;;;;5090023;28;20224;-76
2023/07/20 12:43:29;;;;;;;0.28;0.28;;;23.90;93.00;;;;;;5090110;28;20040;-75
2023/07/20 12:45:56;;;;;;;0.15;0.15;;;23.80;93.50;;;;;;5090193;28;20494;-74
2023/07/20 12:48:22;;;;;;;0.10;0.10;;;24.10;93.60;;;;;;5090279;28;20051;-74
2023/07/20 12:50:48;;;;;;;0.15;0.15;;;23.20;93.60;;;;;;5089636;28;20028;-75